Time;durP1;ratioP1;P1;durP2;ratioP2;P2;SDS_P1;SDS_P2;PMS_P1;PMS_P2;Temp;Humidity;BMP_temperature;BMP_pressure;BME280_temperature;BME280_humidity;BME280_pressure;Samples;Min_cycle;Max_cycle;Signal;HPM_P1;HPM_P2
2021/03/22 00:01:01;;;;;;;26.65;14.63;;;;;;;1.07;56.54;100611.61;1767216;81;26878;-59
2021/03/22 00:03:29;;;;;;;;;;;;;;;1.05;56.76;100607.73;1769636;81;25699;-59
2021/03/22 00:05:59;;;;;;;24.82;13.75;;;;;;;1.07;56.98;100606.31;1754450;80;28450;-59
2021/03/22 00:08:30;;;;;;;19.45;12.98;;;;;;;1.08;57.23;100601.41;1785112;80;25461;-59
2021/03/22 00:10:58;;;;;;;22.75;14.30;;;;;;;1.10;57.24;100594.25;1754198;81;25690;-59
2021/03/22 00:13:28;;;;;;;23.18;13.62;;;;;;;1.11;57.35;100593.31;1767158;80;25559;-59
2021/03/22 00:16:01;;;;;;;23.42;14.25;;;;;;;1.09;57.18;100590.72;1718911;82;26118;-59
2021/03/22 00:18:34;;;;;;;25.08;13.13;;;;;;;1.11;57.26;100586.69;1718728;82;27536;-59
2021/03/22 00:21:05;;;;;;;18.95;12.98;;;;;;;1.12;57.46;100584.88;1718630;82;25820;-59
2021/03/22 00:23:33;;;;;;;21.97;12.93;;;;;;;1.12;57.41;100584.88;1718708;83;25653;-59
2021/03/22 00:26:02;;;;;;;22.73;14.07;;;;;;;1.16;57.40;100581.15;1688131;83;25769;-59
2021/03/22 00:28:30;;;;;;;27.48;15.13;;;;;;;1.18;57.41;100585.87;1718690;82;26081;-59
2021/03/22 00:30:59;;;;;;;30.25;15.53;;;;;;;1.17;57.30;100577.08;1725732;81;27540;-59
2021/03/22 00:33:27;;;;;;;25.55;14.50;;;;;;;1.15;57.27;100575.45;1718625;82;25627;-59
2021/03/22 00:35:55;;;;;;;23.77;15.23;;;;;;;1.16;57.17;100576.69;1718679;83;25697;-59
2021/03/22 00:38:23;;;;;;;30.40;16.02;;;;;;;1.18;57.28;100578.80;1718686;82;26482;-59
2021/03/22 00:40:51;;;;;;;23.15;14.63;;;;;;;1.15;57.63;100571.48;1718625;83;25747;-59
2021/03/22 00:43:19;;;;;;;20.08;13.03;;;;;;;1.08;57.79;100568.29;1718801;82;26929;-59
2021/03/22 00:45:50;;;;;;;20.43;12.58;;;;;;;1.08;57.76;100566.97;1717599;82;25728;-59
2021/03/22 00:48:19;;;;;;;19.50;12.58;;;;;;;1.07;57.88;100555.98;1730944;82;25712;-59
2021/03/22 00:50:47;;;;;;;19.00;13.05;;;;;;;1.08;57.92;100562.51;1719386;82;25641;-59
2021/03/22 00:53:17;;;;;;;17.92;12.43;;;;;;;1.09;57.77;100556.76;1718922;82;25653;-59
2021/03/22 00:55:46;;;;;;;21.50;13.22;;;;;;;1.10;58.14;100555.83;1729050;82;27530;-59
2021/03/22 00:58:15;;;;;;;19.82;13.00;;;;;;;1.09;57.79;100554.11;1718726;82;25451;-59
2021/03/22 01:00:48;;;;;;;20.75;12.95;;;;;;;1.05;57.69;100549.89;1744474;81;25699;-59
2021/03/22 01:03:24;;;;;;;22.48;13.83;;;;;;;1.04;57.72;100550.83;1747621;80;25675;-59
2021/03/22 01:05:54;;;;;;;21.00;13.65;;;;;;;1.04;57.70;100540.23;1748554;81;26140;-59
2021/03/22 01:08:26;;;;;;;21.17;13.32;;;;;;;1.04;57.71;100537.12;1759888;81;27523;-59
2021/03/22 01:11:14;;;;;;;24.70;14.75;;;;;;;1.04;57.56;100531.83;1769240;80;25868;-59
2021/03/22 01:13:52;;;;;;;21.27;12.80;;;;;;;1.05;57.78;100527.38;1754348;81;25714;-58
2021/03/22 01:16:34;;;;;;;21.50;12.70;;;;;;;1.05;57.79;100529.58;1779235;80;25687;-59
2021/03/22 01:19:16;;;;;;;28.95;13.70;;;;;;;1.06;58.13;100523.34;1718438;83;26141;-59
2021/03/22 01:21:55;;;;;;;25.77;14.63;;;;;;;1.04;57.93;100523.02;1718611;83;26960;-59
2021/03/22 01:24:27;;;;;;;27.50;13.25;;;;;;;1.04;58.08;100524.34;1734510;82;25721;-59
2021/03/22 01:27:00;;;;;;;20.75;13.43;;;;;;;1.04;58.00;100519.91;1748568;82;25730;-59
2021/03/22 01:29:33;;;;;;;26.27;13.57;;;;;;;1.05;57.98;100515.00;1747323;82;25781;-59
2021/03/22 01:32:12;;;;;;;23.65;13.32;;;;;;;1.09;58.11;100518.34;1833169;77;25664;-59
2021/03/22 01:34:40;;;;;;;22.60;13.58;;;;;;;1.03;58.20;100513.38;1803869;79;25645;-59
2021/03/22 01:37:08;;;;;;;24.55;14.28;;;;;;;1.02;58.25;100512.50;1803706;79;28444;-58
2021/03/22 01:39:38;;;;;;;24.60;13.48;;;;;;;1.07;58.41;100510.94;1783789;79;26178;-58
2021/03/22 01:42:21;;;;;;;21.97;13.35;;;;;;;1.06;58.40;100505.25;1773569;80;25881;-58
2021/03/22 01:45:08;;;;;;;24.50;13.95;;;;;;;1.08;58.44;100501.58;1805482;79;25722;-60
2021/03/22 01:47:37;;;;;;;21.07;13.68;;;;;;;1.09;58.74;100496.66;1805452;78;25710;-58
2021/03/22 01:50:15;;;;;;;29.85;15.25;;;;;;;1.09;58.69;100491.85;1804501;79;27588;-58
2021/03/22 01:52:46;;;;;;;23.52;14.00;;;;;;;1.09;58.81;100494.02;1805462;79;25448;-58
2021/03/22 01:55:16;;;;;;;22.22;14.23;;;;;;;1.09;58.72;100490.52;1799871;79;25600;-58
2021/03/22 01:57:46;;;;;;;23.25;13.85;;;;;;;1.09;58.85;100491.37;1777367;79;26193;-58
2021/03/22 02:00:27;;;;;;;26.68;12.95;;;;;;;1.06;58.91;100491.55;1773676;79;25770;-58
2021/03/22 02:03:06;;;;;;;23.27;14.07;;;;;;;1.05;58.88;100484.98;1773719;79;27615;-59
2021/03/22 02:05:37;;;;;;;20.50;13.40;;;;;;;1.06;58.81;100489.35;1772286;80;25663;-59
2021/03/22 02:08:17;;;;;;;19.12;13.15;;;;;;;1.08;58.71;100486.16;1773768;80;25718;-59
2021/03/22 02:10:46;;;;;;;20.85;13.65;;;;;;;1.10;58.80;100481.64;1773211;80;25765;-59
2021/03/22 02:13:18;;;;;;;19.90;12.75;;;;;;;1.10;59.07;100479.00;1773752;80;25484;-59
2021/03/22 02:15:47;;;;;;;19.82;12.33;;;;;;;1.11;58.95;100479.38;1773685;80;28060;-59
2021/03/22 02:18:54;;;;;;;23.07;12.60;;;;;;;1.11;59.05;100478.52;1773657;80;25675;-59
2021/03/22 02:22:00;;;;;;;19.70;12.50;;;;;;;1.07;58.98;100475.17;1773692;80;25658;-59
2021/03/22 02:25:10;;;;;;;20.57;11.83;;;;;;;0.99;59.45;100480.87;1772258;80;25615;-59
2021/03/22 02:28:22;;;;;;;22.95;13.62;;;;;;;0.94;59.15;100479.79;1779625;78;25683;-59
2021/03/22 02:31:25;;;;;;;23.65;13.90;;;;;;;0.89;59.25;100488.46;1775418;80;28479;-59
2021/03/22 02:34:27;;;;;;;20.88;12.78;;;;;;;0.83;59.15;100486.15;1779918;79;26111;-59
2021/03/22 02:37:22;;;;;;;22.35;14.03;;;;;;;0.81;59.69;100482.72;1779852;80;25730;-59
2021/03/22 02:40:01;;;;;;;21.20;13.65;;;;;;;0.72;59.51;100480.06;1766258;80;26154;-59
2021/03/22 02:42:31;;;;;;;20.52;12.68;;;;;;;0.69;59.61;100478.05;1779679;80;25805;-59
2021/03/22 02:44:59;;;;;;;18.25;12.18;;;;;;;0.64;59.83;100473.48;1780044;79;27517;-59
2021/03/22 02:47:38;;;;;;;19.10;11.97;;;;;;;0.64;60.14;100472.16;1779395;80;26169;-58
2021/03/22 02:50:12;;;;;;;23.05;13.05;;;;;;;0.59;59.98;100469.74;1779716;79;27029;-58
2021/03/22 02:53:04;;;;;;;25.55;12.93;;;;;;;0.60;59.93;100469.66;1779639;79;25700;-58
2021/03/22 02:56:02;;;;;;;21.70;12.53;;;;;;;0.59;59.97;100471.91;1779225;79;25620;-59
2021/03/22 02:58:35;;;;;;;21.27;12.10;;;;;;;0.58;59.85;100467.55;1760276;80;27545;-59
2021/03/22 03:01:09;;;;;;;15.98;11.33;;;;;;;0.54;59.99;100464.69;1788508;79;26103;-59
2021/03/22 03:03:38;;;;;;;21.35;12.70;;;;;;;0.52;60.08;100469.20;1811425;79;25665;-60
2021/03/22 03:06:07;;;;;;;19.17;12.23;;;;;;;0.49;60.10;100464.53;1811476;77;25732;-59
2021/03/22 03:08:39;;;;;;;21.85;13.72;;;;;;;0.45;60.45;100459.39;1811523;79;25713;-59
2021/03/22 03:11:09;;;;;;;18.37;12.23;;;;;;;0.43;60.59;100456.44;1811298;79;27513;-60
2021/03/22 03:13:38;;;;;;;23.45;14.10;;;;;;;0.42;60.65;100462.66;1811260;79;25763;-60
2021/03/22 03:16:08;;;;;;;19.73;12.73;;;;;;;0.42;60.56;100463.98;1811492;78;25709;-59
2021/03/22 03:18:36;;;;;;;18.62;12.47;;;;;;;0.43;60.67;100460.41;1807237;79;25598;-59
2021/03/22 03:21:04;;;;;;;24.25;12.70;;;;;;;0.46;60.50;100455.81;1810912;79;25649;-60
2021/03/22 03:23:32;;;;;;;20.20;12.85;;;;;;;0.49;60.67;100453.95;1811367;79;28421;-60
2021/03/22 03:26:00;;;;;;;22.90;12.82;;;;;;;0.46;60.96;100457.13;1811110;78;25493;-60
2021/03/22 03:28:28;;;;;;;21.50;12.30;;;;;;;0.45;60.91;100457.22;1836841;77;26175;-60
2021/03/22 03:30:58;;;;;;;19.37;12.30;;;;;;;0.45;61.49;100457.22;1769069;80;26039;-60
2021/03/22 03:33:27;;;;;;;22.52;12.68;;;;;;;0.36;60.81;100461.18;1736387;81;25801;-60
2021/03/22 03:35:55;;;;;;;18.50;12.30;;;;;;;0.33;61.00;100461.80;1785334;79;27325;-60
2021/03/22 03:38:23;;;;;;;19.90;11.63;;;;;;;0.28;61.14;100457.63;1802219;79;25732;-60
2021/03/22 03:40:50;;;;;;;17.62;11.08;;;;;;;0.27;61.35;100459.88;1802379;79;25643;-60
2021/03/22 03:43:19;;;;;;;20.88;11.55;;;;;;;0.26;62.14;100461.28;1807640;78;25715;-60
2021/03/22 03:45:51;;;;;;;18.85;12.05;;;;;;;0.15;61.45;100460.48;1798229;78;26504;-60
2021/03/22 03:48:24;;;;;;;25.23;13.98;;;;;;;0.12;61.40;100458.85;1770821;79;27573;-60
2021/03/22 03:51:00;;;;;;;24.45;13.88;;;;;;;0.14;61.78;100454.35;1770484;81;25709;-60
2021/03/22 03:53:29;;;;;;;31.17;16.87;;;;;;;0.13;61.81;100455.28;1770686;80;25647;-60
2021/03/22 03:55:59;;;;;;;23.57;13.72;;;;;;;0.13;62.02;100450.47;1770614;80;25772;-60
2021/03/22 03:58:27;;;;;;;21.05;12.68;;;;;;;0.12;62.05;100445.62;1784719;79;25522;-60
2021/03/22 04:00:56;;;;;;;23.57;13.30;;;;;;;0.14;61.90;100444.22;1802267;79;27686;-60
2021/03/22 04:03:32;;;;;;;19.50;12.82;;;;;;;0.15;61.79;100443.29;1808766;78;26118;-60
2021/03/22 04:06:17;;;;;;;18.32;11.12;;;;;;;0.16;61.86;100445.00;1797546;79;25668;-60
2021/03/22 04:08:55;;;;;;;18.52;12.60;;;;;;;0.17;61.71;100446.72;1797472;79;25733;-60
2021/03/22 04:11:33;;;;;;;19.05;12.00;;;;;;;0.17;61.63;100446.72;1802317;79;26087;-59
2021/03/22 04:14:02;;;;;;;18.27;12.47;;;;;;;0.14;61.63;100446.41;1802290;79;27557;-60
2021/03/22 04:16:33;;;;;;;19.30;12.37;;;;;;;0.17;61.81;100445.88;1802091;78;26744;-60
2021/03/22 04:19:02;;;;;;;19.82;12.37;;;;;;;0.21;61.93;100450.06;1793584;79;25446;-59
2021/03/22 04:21:32;;;;;;;22.95;12.88;;;;;;;0.23;61.90;100437.63;1770487;80;25515;-60
2021/03/22 04:24:02;;;;;;;19.25;12.10;;;;;;;0.26;61.76;100439.64;1770606;80;25696;-60
2021/03/22 04:26:30;;;;;;;22.80;11.85;;;;;;;0.26;61.59;100444.93;1794230;79;27602;-60
2021/03/22 04:28:59;;;;;;;18.65;12.40;;;;;;;0.31;61.79;100443.38;1834359;78;25736;-60
2021/03/22 04:31:31;;;;;;;24.20;12.60;;;;;;;0.33;61.66;100448.58;1835046;77;25683;-60
2021/03/22 04:34:02;;;;;;;20.90;12.75;;;;;;;0.33;61.63;100454.74;1733432;81;25716;-60
2021/03/22 04:36:36;;;;;;;19.52;12.30;;;;;;;0.36;61.68;100450.59;1751341;80;25681;-59
2021/03/22 04:39:05;;;;;;;;;;;;;;;0.39;61.75;100450.45;1726798;81;27615;-59
2021/03/22 04:41:35;;;;;;;21.73;14.05;;;;;;;0.38;61.61;100455.83;1740879;80;25716;-59
2021/03/22 04:44:06;;;;;;;20.90;12.58;;;;;;;0.38;61.72;100454.02;1768746;80;25722;-59
2021/03/22 04:46:36;;;;;;;20.12;12.43;;;;;;;0.41;61.70;100453.00;1763397;80;25702;-60
2021/03/22 04:49:05;;;;;;;25.20;13.72;;;;;;;0.43;61.81;100449.38;1772015;80;25686;-59
2021/03/22 04:51:33;;;;;;;22.77;13.85;;;;;;;0.50;61.98;100451.21;1754327;81;27547;-59
2021/03/22 04:54:01;;;;;;;27.35;13.35;;;;;;;0.54;62.00;100446.16;1754039;81;25675;-59
2021/03/22 04:56:29;;;;;;;23.42;14.40;;;;;;;0.61;61.99;100446.70;1754383;81;25638;-59
2021/03/22 04:58:57;;;;;;;24.90;14.63;;;;;;;0.67;62.07;100456.96;1734820;81;25704;-60
2021/03/22 05:01:25;;;;;;;22.55;13.25;;;;;;;0.71;62.06;100451.91;1712074;83;26077;-60
2021/03/22 05:03:54;;;;;;;31.80;14.55;;;;;;;0.72;62.10;100451.42;1723889;83;27505;-60
2021/03/22 05:06:22;;;;;;;26.95;15.08;;;;;;;0.74;61.88;100452.20;1695000;83;25647;-60
2021/03/22 05:08:50;;;;;;;24.52;14.13;;;;;;;0.76;62.11;100445.89;1717453;81;25780;-60
2021/03/22 05:11:18;;;;;;;82.05;15.43;;;;;;;0.84;62.19;100446.81;1724632;80;26232;-60
2021/03/22 05:13:46;;;;;;;65.25;14.78;;;;;;;0.90;62.44;100446.93;1754278;80;25804;-60
2021/03/22 05:16:14;;;;;;;23.32;13.80;;;;;;;0.94;62.45;100450.66;1742760;81;28425;-60
2021/03/22 05:18:45;;;;;;;25.85;14.00;;;;;;;1.00;62.41;100453.93;1733988;82;25750;-60
2021/03/22 05:21:13;;;;;;;22.80;12.63;;;;;;;1.00;62.49;100452.12;1707313;82;25664;-60
2021/03/22 05:23:42;;;;;;;26.40;14.85;;;;;;;1.00;62.49;100450.80;1707270;83;25609;-60
2021/03/22 05:26:11;;;;;;;34.38;15.63;;;;;;;1.00;62.59;100453.45;1707409;82;25695;-59
2021/03/22 05:28:42;;;;;;;22.42;13.90;;;;;;;1.05;62.57;100457.17;1732150;82;27536;-60
2021/03/22 05:31:10;;;;;;;178.40;21.35;;;;;;;1.09;62.62;100454.77;1736696;82;25704;-60
2021/03/22 05:33:39;;;;;;;43.55;16.25;;;;;;;1.17;62.67;100451.67;1735891;81;25637;-60
2021/03/22 05:36:07;;;;;;;38.23;17.12;;;;;;;1.25;62.59;100460.09;1752673;81;25715;-60
2021/03/22 05:38:37;;;;;;;320.60;29.18;;;;;;;1.32;62.86;100456.16;1752319;81;25697;-60
2021/03/22 05:41:10;;;;;;;286.87;28.27;;;;;;;1.37;62.74;100454.09;1754350;80;26875;-60
2021/03/22 05:43:46;;;;;;;181.10;22.80;;;;;;;1.43;62.66;100450.73;1746056;80;25796;-60
2021/03/22 05:46:47;;;;;;;72.25;18.70;;;;;;;1.51;62.59;100448.51;1732317;81;25648;-60
2021/03/22 05:49:42;;;;;;;27.02;16.30;;;;;;;1.58;62.61;100455.17;1752248;80;25988;-60
2021/03/22 05:52:20;;;;;;;;;;;;;;;1.65;62.66;100447.25;1756524;81;25734;-59
2021/03/22 05:55:21;;;;;;;30.80;16.35;;;;;;;1.68;62.92;100451.52;1751765;80;27622;-60
2021/03/22 05:58:05;;;;;;;27.75;15.32;;;;;;;1.74;62.76;100445.89;1719141;82;25553;-60
2021/03/22 06:01:00;;;;;;;33.90;19.80;;;;;;;1.81;62.63;100445.05;1694141;82;25729;-60
2021/03/22 06:03:43;;;;;;;26.65;16.17;;;;;;;1.85;62.54;100454.06;1719781;82;25792;-61
2021/03/22 06:06:32;;;;;;;24.47;14.78;;;;;;;1.90;62.29;100452.47;1722727;83;26046;-60
2021/03/22 06:09:20;;;;;;;26.02;16.50;;;;;;;1.91;62.34;100449.36;1753983;80;28658;-61
2021/03/22 06:12:22;;;;;;;40.78;18.40;;;;;;;1.95;62.38;100454.41;1754168;81;26335;-60
2021/03/22 06:15:27;;;;;;;34.80;16.25;;;;;;;1.99;62.58;100460.39;1753978;81;25736;-60
2021/03/22 06:18:31;;;;;;;42.73;16.40;;;;;;;2.03;62.67;100445.98;1733245;80;25640;-60
2021/03/22 06:21:05;;;;;;;25.68;14.35;;;;;;;2.07;62.76;100446.20;1692008;81;25516;-61
2021/03/22 06:23:42;;;;;;;20.30;13.77;;;;;;;2.21;63.16;100447.17;1724360;83;27540;-61
2021/03/22 06:26:40;;;;;;;33.25;15.20;;;;;;;2.21;63.16;100447.17;1734004;82;25463;-60
2021/03/22 06:29:27;;;;;;;28.92;14.07;;;;;;;2.30;62.60;100446.63;1714563;83;25852;-61
2021/03/22 06:32:02;;;;;;;24.57;14.18;;;;;;;2.42;62.79;100445.08;1713359;83;25475;-61
2021/03/22 06:34:58;;;;;;;29.12;13.85;;;;;;;2.55;62.59;100448.69;1708497;80;25526;-59
2021/03/22 06:37:31;;;;;;;37.55;16.90;;;;;;;2.68;62.43;100441.31;1725880;81;27522;-60
2021/03/22 06:40:17;;;;;;;25.08;14.78;;;;;;;2.79;62.24;100437.50;1705601;84;26091;-59
2021/03/22 06:42:50;;;;;;;25.05;15.43;;;;;;;2.93;62.17;100434.00;1705547;84;25811;-59
2021/03/22 06:45:41;;;;;;;27.70;15.53;;;;;;;3.05;61.65;100431.91;1700841;83;25761;-59
2021/03/22 06:48:32;;;;;;;32.58;15.88;;;;;;;3.12;61.29;100433.72;1705645;84;25698;-60
2021/03/22 06:51:06;;;;;;;26.17;15.90;;;;;;;3.22;61.06;100432.65;1705711;82;28465;-60
2021/03/22 06:53:51;;;;;;;122.92;18.25;;;;;;;3.28;60.76;100436.23;1705735;83;25675;-60
2021/03/22 06:56:39;;;;;;;36.48;17.50;;;;;;;3.34;60.53;100430.55;1705646;84;25695;-60
2021/03/22 06:59:22;;;;;;;34.78;16.27;;;;;;;3.41;60.39;100433.65;1725691;82;25680;-60
2021/03/22 07:01:52;;;;;;;31.37;17.50;;;;;;;3.51;60.32;100428.12;1714115;82;25773;-60
2021/03/22 07:04:34;;;;;;;41.20;18.17;;;;;;;3.57;60.10;100434.85;1705631;84;27421;-60
2021/03/22 07:07:25;;;;;;;46.90;19.30;;;;;;;3.62;59.98;100434.09;1765148;79;25691;-60
2021/03/22 07:09:58;;;;;;;36.70;20.23;;;;;;;3.69;59.81;100428.75;1765227;79;25471;-61
2021/03/22 07:12:37;;;;;;;41.02;18.95;;;;;;;3.75;59.40;100428.34;1765096;81;25726;-60
2021/03/22 07:15:34;;;;;;;45.50;20.92;;;;;;;3.81;59.18;100431.56;1765213;81;25635;-61
2021/03/22 07:18:28;;;;;;;42.03;19.15;;;;;;;3.90;59.09;100426.94;1765237;81;27566;-60
2021/03/22 07:21:02;;;;;;;36.17;17.05;;;;;;;3.99;59.07;100423.66;1765176;81;25745;-61
2021/03/22 07:23:58;;;;;;;33.73;16.82;;;;;;;4.03;59.01;100429.17;1764991;79;25989;-61
2021/03/22 07:27:01;;;;;;;43.33;17.77;;;;;;;4.09;59.09;100433.23;1784862;78;26568;-61
2021/03/22 07:29:51;;;;;;;34.20;18.02;;;;;;;4.19;59.35;100429.47;1788866;79;25722;-61
2021/03/22 07:32:37;;;;;;;28.00;15.15;;;;;;;4.31;59.35;100429.11;1787743;79;27612;-60
2021/03/22 07:35:30;;;;;;;30.80;17.70;;;;;;;4.44;58.79;100426.00;1779154;80;25741;-60
2021/03/22 07:38:15;;;;;;;30.00;16.12;;;;;;;4.52;58.40;100428.98;1733193;81;25663;-60
2021/03/22 07:41:02;;;;;;;32.90;17.17;;;;;;;4.61;58.12;100426.64;1805630;79;25712;-60
2021/03/22 07:44:09;;;;;;;30.50;17.12;;;;;;;4.70;57.83;100433.53;1801661;79;25676;-60
2021/03/22 07:47:04;;;;;;;39.20;18.85;;;;;;;4.81;57.68;100431.91;1779334;80;27549;-60
2021/03/22 07:49:55;;;;;;;35.15;19.27;;;;;;;4.90;57.38;100423.76;1778974;80;25751;-60
2021/03/22 07:52:50;;;;;;;48.02;19.15;;;;;;;5.04;56.49;100422.78;1779271;80;25684;-61
2021/03/22 07:55:49;;;;;;;39.05;18.70;;;;;;;5.11;56.32;100422.22;1779475;80;26410;-60
2021/03/22 07:58:26;;;;;;;41.92;20.15;;;;;;;5.20;56.18;100422.55;1779317;79;26106;-59
2021/03/22 08:01:34;;;;;;;40.28;20.23;;;;;;;5.40;55.73;100417.10;1781625;79;27500;-59
2021/03/22 08:04:25;;;;;;;42.48;20.17;;;;;;;5.54;55.59;100413.43;1817640;78;25681;-61
2021/03/22 08:07:05;;;;;;;47.85;19.65;;;;;;;5.72;54.50;100412.08;1811092;79;25785;-60
2021/03/22 08:10:17;;;;;;;46.60;21.57;;;;;;;5.86;53.22;100420.39;1803490;79;26681;-60
2021/03/22 08:12:56;;;;;;;37.23;17.17;;;;;;;5.92;52.19;100414.58;1779650;79;25670;-60
2021/03/22 08:16:01;;;;;;;57.45;20.23;;;;;;;6.00;51.39;100410.05;1779309;79;27556;-60
2021/03/22 08:18:49;;;;;;;46.88;19.10;;;;;;;6.10;49.51;100408.86;1732523;82;26094;-60
2021/03/22 08:21:42;;;;;;;42.38;18.67;;;;;;;6.20;50.35;100402.32;1795660;79;25740;-60
2021/03/22 08:24:41;;;;;;;38.65;17.37;;;;;;;6.33;48.54;100400.89;1791380;79;25695;-60
2021/03/22 08:27:20;;;;;;;37.38;16.25;;;;;;;6.41;48.84;100400.69;1806806;79;25634;-60
2021/03/22 08:30:10;;;;;;;43.42;18.32;;;;;;;6.47;46.28;100394.02;1782156;79;27534;-60
2021/03/22 08:32:47;;;;;;;46.30;16.37;;;;;;;6.55;46.51;100396.94;1782322;79;25624;-60
2021/03/22 08:35:42;;;;;;;50.45;19.10;;;;;;;6.71;46.57;100391.72;1800319;79;25629;-60
2021/03/22 08:38:19;;;;;;;31.55;16.23;;;;;;;6.94;46.00;100390.41;1732446;82;25696;-61
2021/03/22 08:40:58;;;;;;;41.98;15.95;;;;;;;7.12;45.34;100383.59;1798814;79;25746;-61
2021/03/22 08:43:49;;;;;;;35.33;16.57;;;;;;;7.28;45.94;100388.53;1803288;78;27537;-61
2021/03/22 08:46:49;;;;;;;36.08;15.58;;;;;;;7.47;45.05;100375.86;1830103;78;25713;-61
2021/03/22 08:49:26;;;;;;;34.33;14.73;;;;;;;7.77;44.33;100376.12;1744781;81;25750;-61
2021/03/22 08:51:58;;;;;;;36.40;15.28;;;;;;;8.04;42.91;100366.24;1745575;81;25698;-61
2021/03/22 08:54:31;;;;;;;33.75;15.83;;;;;;;8.29;41.32;100364.17;1732109;82;25671;-61
2021/03/22 08:57:20;;;;;;;50.83;16.70;;;;;;;8.46;43.01;100364.91;1738536;81;27341;-61
2021/03/22 08:59:50;;;;;;;29.23;16.07;;;;;;;8.67;43.10;100368.57;1728020;82;25816;-61
2021/03/22 09:02:24;;;;;;;38.05;17.30;;;;;;;8.92;42.69;100363.22;1720914;83;25700;-60
2021/03/22 09:04:55;;;;;;;37.42;16.27;;;;;;;9.20;41.26;100357.61;1733609;80;25669;-61
2021/03/22 09:07:29;;;;;;;37.05;15.68;;;;;;;9.45;40.65;100367.47;1736679;80;26098;-61
2021/03/22 09:10:31;;;;;;;41.87;16.97;;;;;;;9.67;39.42;100358.81;1779680;78;28410;-60
2021/03/22 09:13:19;;;;;;;44.73;16.23;;;;;;;9.87;38.27;100356.97;1735617;82;25750;-60
2021/03/22 09:16:24;;;;;;;33.40;16.52;;;;;;;10.20;38.44;100358.84;1733046;82;25667;-60
2021/03/22 09:19:18;;;;;;;45.20;17.92;;;;;;;10.48;36.66;100353.58;1709336;82;26500;-60
2021/03/22 09:21:53;;;;;;;31.10;16.02;;;;;;;10.89;36.12;100351.44;1725619;82;25545;-61
2021/03/22 09:24:44;;;;;;;36.45;17.37;;;;;;;11.34;35.95;100355.69;1725546;83;27529;-61
2021/03/22 09:27:21;;;;;;;30.90;15.55;;;;;;;11.65;34.74;100353.97;1774827;79;25636;-61
2021/03/22 09:30:04;;;;;;;24.02;15.50;;;;;;;12.07;33.78;100351.17;1771022;79;25703;-61
2021/03/22 09:32:43;;;;;;;27.48;14.35;;;;;;;12.46;32.18;100354.83;1758027;81;25641;-60
2021/03/22 09:35:20;;;;;;;29.45;15.65;;;;;;;12.80;31.09;100349.44;1716503;83;25744;-60
2021/03/22 09:38:04;;;;;;;29.85;15.18;;;;;;;12.99;32.83;100348.84;1716499;82;26598;-60
2021/03/22 09:40:38;;;;;;;26.68;14.43;;;;;;;13.37;32.88;100349.32;1735394;80;25702;-60
2021/03/22 09:43:12;;;;;;;49.10;16.42;;;;;;;13.98;32.97;100352.31;1785184;79;25795;-60
2021/03/22 09:46:01;;;;;;;42.03;15.88;;;;;;;14.42;32.34;100351.08;1789091;80;31945;-60
2021/03/22 09:48:37;;;;;;;46.20;15.55;;;;;;;14.42;30.47;100353.30;1789109;80;26395;-60
2021/03/22 09:51:12;;;;;;;26.27;13.85;;;;;;;14.69;30.31;100360.71;1788368;79;28444;-60
2021/03/22 09:54:02;;;;;;;21.52;12.70;;;;;;;14.99;30.39;100356.38;1789109;80;35139;-60
2021/03/22 09:56:40;;;;;;;19.07;11.65;;;;;;;15.29;30.19;100362.50;1788789;80;25647;-60
2021/03/22 09:59:34;;;;;;;22.10;12.13;;;;;;;15.27;28.17;100361.83;1772800;79;26304;-60
2021/03/22 10:02:32;;;;;;;;;;;;;;;15.38;28.14;100359.22;1769178;81;26082;-60
2021/03/22 10:05:15;;;;;;;25.62;10.88;;;;;;;15.36;26.43;100358.05;1756276;79;27684;-60
2021/03/22 10:08:13;;;;;;;33.45;12.10;;;;;;;15.32;27.28;100352.15;1748109;79;25779;-60
2021/03/22 10:11:03;;;;;;;16.10;10.53;;;;;;;15.05;26.68;100347.20;1756233;81;25657;-60
2021/03/22 10:13:42;;;;;;;20.12;9.93;;;;;;;15.16;24.98;100349.00;1750132;79;25807;-60
2021/03/22 10:16:36;;;;;;;21.48;9.85;;;;;;;15.16;24.81;100350.88;1758755;79;25727;-60
2021/03/22 10:19:22;;;;;;;13.83;10.45;;;;;;;14.79;25.96;100342.37;1753536;81;27598;-60
2021/03/22 10:22:00;;;;;;;22.40;12.82;;;;;;;15.17;24.70;100341.21;1750055;80;25730;-60
2021/03/22 10:24:37;;;;;;;18.45;10.32;;;;;;;15.58;24.50;100337.95;1767990;80;25719;-60
2021/03/22 10:27:23;;;;;;;15.38;10.05;;;;;;;15.98;25.56;100333.25;1751338;79;25735;-60
2021/03/22 10:30:21;;;;;;;17.07;9.88;;;;;;;16.60;25.64;100335.36;1799732;79;26360;-60
2021/03/22 10:33:03;;;;;;;16.02;8.50;;;;;;;17.14;23.11;100318.44;1793082;79;27592;-60
2021/03/22 10:35:50;;;;;;;28.05;9.00;;;;;;;16.42;23.74;100311.31;1836229;78;25505;-60
2021/03/22 10:38:23;;;;;;;21.82;9.95;;;;;;;16.05;24.19;100308.95;1805125;79;25776;-60
2021/03/22 10:40:53;;;;;;;14.15;8.48;;;;;;;15.75;24.78;100312.89;1792511;78;28443;-60
2021/03/22 10:43:35;;;;;;;15.38;9.33;;;;;;;15.58;25.11;100308.13;1795374;78;26541;-61
2021/03/22 10:46:23;;;;;;;17.25;9.10;;;;;;;15.48;25.58;100304.27;1792095;78;25724;-59
2021/03/22 10:49:11;;;;;;;49.73;24.55;;;;;;;15.49;25.42;100301.90;1787902;79;25757;-58
2021/03/22 10:51:47;;;;;;;53.75;22.20;;;;;;;15.43;24.63;100309.41;1779880;79;25708;-58
2021/03/22 10:54:46;;;;;;;15.18;8.95;;;;;;;15.16;25.10;100302.94;1756391;80;26849;-60
2021/03/22 10:57:22;;;;;;;17.55;8.58;;;;;;;15.12;25.32;100307.05;1735132;82;25786;-59
2021/03/22 10:59:54;;;;;;;16.93;8.70;;;;;;;15.02;23.75;100294.23;1755310;80;25783;-59
2021/03/22 11:02:36;;;;;;;14.45;8.50;;;;;;;14.77;22.75;100303.83;1765023;80;25655;-59
2021/03/22 11:05:10;;;;;;;14.68;8.28;;;;;;;14.63;24.06;100305.85;1740359;81;25681;-60
2021/03/22 11:07:39;;;;;;;9.13;7.65;;;;;;;14.38;24.15;100305.44;1735876;82;27706;-60
2021/03/22 11:10:21;;;;;;;13.50;9.08;;;;;;;14.32;23.49;100296.64;1735802;82;26232;-60
2021/03/22 11:12:52;;;;;;;18.27;9.85;;;;;;;14.20;24.30;100289.92;1736281;81;25670;-58
2021/03/22 11:15:36;;;;;;;22.45;10.10;;;;;;;14.03;24.56;100288.56;1735145;81;25691;-58
2021/03/22 11:18:09;;;;;;;21.17;9.43;;;;;;;13.96;25.17;100284.03;1745073;82;26085;-59
2021/03/22 11:20:46;;;;;;;17.48;6.97;;;;;;;14.31;25.50;100281.94;1747472;80;27636;-57
2021/03/22 11:23:27;;;;;;;19.65;7.28;;;;;;;14.77;23.90;100272.69;1747064;80;25759;-59
2021/03/22 11:26:17;;;;;;;8.75;6.72;;;;;;;15.06;22.65;100269.80;1751965;80;25669;-58
2021/03/22 11:28:46;;;;;;;10.65;7.35;;;;;;;15.00;23.01;100272.75;1756708;79;26069;-58
2021/03/22 11:31:28;;;;;;;12.73;7.53;;;;;;;15.53;22.47;100280.20;1746686;82;25627;-60
2021/03/22 11:34:09;;;;;;;14.85;6.97;;;;;;;15.60;20.90;100281.65;1742025;82;27968;-57
2021/03/22 11:36:42;;;;;;;19.15;7.05;;;;;;;15.38;20.63;100286.05;1763772;79;25814;-56
2021/03/22 11:39:15;;;;;;;12.30;7.23;;;;;;;15.11;21.01;100289.59;1788560;79;25675;-57
2021/03/22 11:41:56;;;;;;;12.40;6.83;;;;;;;14.98;20.60;100281.55;1778708;78;26125;-57
2021/03/22 11:44:35;;;;;;;15.23;6.55;;;;;;;15.21;21.77;100282.61;1795302;78;25733;-57
2021/03/22 11:47:28;;;;;;;30.37;7.05;;;;;;;15.55;21.66;100279.52;1780079;79;27598;-57
2021/03/22 11:49:57;;;;;;;10.53;6.42;;;;;;;16.11;19.60;100267.01;1768036;79;26080;-57
2021/03/22 11:52:32;;;;;;;8.43;5.80;;;;;;;16.27;21.41;100264.62;1768150;81;25454;-57
2021/03/22 11:55:07;;;;;;;9.90;6.45;;;;;;;16.38;19.36;100266.05;1768243;81;25742;-57
2021/03/22 11:57:40;;;;;;;12.28;6.03;;;;;;;16.42;18.77;100269.23;1727123;82;25580;-57
2021/03/22 12:00:22;;;;;;;7.67;6.07;;;;;;;16.23;19.14;100271.47;1748395;82;28466;-58
2021/03/22 12:03:09;;;;;;;12.63;6.33;;;;;;;16.37;20.05;100274.36;1700444;83;25704;-58
2021/03/22 12:05:42;;;;;;;17.80;6.53;;;;;;;16.08;19.38;100270.61;1743125;82;25841;-58
2021/03/22 12:08:44;;;;;;;12.18;5.78;;;;;;;15.99;19.91;100275.78;1799747;79;26189;-58
2021/03/22 12:11:24;;;;;;;9.65;6.37;;;;;;;15.64;19.83;100271.61;1713649;83;25652;-58